createdAt,value
2019-02-15T00:00:53.656Z,78.70
2019-02-15T00:03:21.400Z,78.60
2019-02-15T00:05:49.177Z,78.70
2019-02-15T00:08:16.581Z,78.60
2019-02-15T00:10:44.743Z,78.60
2019-02-15T00:13:15.705Z,78.60
2019-02-15T00:15:44.418Z,78.40
2019-02-15T00:18:32.392Z,78.60
2019-02-15T00:21:10.215Z,78.50
2019-02-15T00:23:38.463Z,78.20
2019-02-15T00:26:06.224Z,78.00
2019-02-15T00:28:33.810Z,77.70
2019-02-15T00:31:01.302Z,77.60
2019-02-15T00:33:29.822Z,77.70
2019-02-15T00:35:57.596Z,77.60
2019-02-15T00:38:25.482Z,77.90
2019-02-15T00:40:52.755Z,77.80
2019-02-15T00:43:22.350Z,77.50
2019-02-15T00:46:07.459Z,77.60
2019-02-15T00:48:36.175Z,77.60
2019-02-15T00:51:41.313Z,77.90
2019-02-15T00:54:45.768Z,77.90
2019-02-15T00:57:42.426Z,78.20
2019-02-15T01:00:41.590Z,77.60
2019-02-15T01:03:28.186Z,77.50
2019-02-15T01:06:14.130Z,76.90
2019-02-15T01:08:51.250Z,77.30
2019-02-15T01:11:28.249Z,77.00
2019-02-15T01:13:55.998Z,77.20
2019-02-15T01:16:23.672Z,77.30
2019-02-15T01:18:51.528Z,77.40
2019-02-15T01:21:22.756Z,77.20
2019-02-15T01:23:50.847Z,77.20
2019-02-15T01:26:29.473Z,77.00
2019-02-15T01:29:16.774Z,77.10
2019-02-15T01:32:13.147Z,77.10
2019-02-15T01:35:04.615Z,76.70
2019-02-15T01:37:54.645Z,77.20
2019-02-15T01:40:37.774Z,77.30
2019-02-15T01:43:23.268Z,77.30
2019-02-15T01:46:10.523Z,77.40
2019-02-15T01:48:38.689Z,77.80
2019-02-15T01:51:06.211Z,77.20
2019-02-15T01:53:34.194Z,77.30
2019-02-15T01:56:02.344Z,77.30
2019-02-15T01:58:29.820Z,77.30
2019-02-15T02:00:57.784Z,77.20
2019-02-15T02:03:25.591Z,77.00
2019-02-15T02:05:54.002Z,77.00
2019-02-15T02:08:24.509Z,76.90
2019-02-15T02:10:52.378Z,76.40
2019-02-15T02:13:20.263Z,76.70
2019-02-15T02:15:48.006Z,76.70
2019-02-15T02:18:15.888Z,76.50
2019-02-15T02:20:44.068Z,76.40
2019-02-15T02:23:12.036Z,76.10
2019-02-15T02:25:40.301Z,76.50
2019-02-15T02:28:07.875Z,75.70
2019-02-15T02:30:39.045Z,75.30
2019-02-15T02:33:06.934Z,75.00
2019-02-15T02:35:34.219Z,74.70
2019-02-15T02:38:01.913Z,74.90
2019-02-15T02:40:29.626Z,74.70
2019-02-15T02:42:57.149Z,74.90
2019-02-15T02:45:25.706Z,74.60
2019-02-15T02:47:53.378Z,74.50
2019-02-15T02:50:21.344Z,74.50
2019-02-15T02:52:48.982Z,74.20
2019-02-15T02:55:16.950Z,74.40
2019-02-15T02:57:44.613Z,74.20
2019-02-15T03:00:12.470Z,74.20
2019-02-15T03:02:40.665Z,74.00
2019-02-15T03:05:09.047Z,73.90
2019-02-15T03:07:37.224Z,74.10
2019-02-15T03:10:04.894Z,74.60
2019-02-15T03:12:32.342Z,74.60
2019-02-15T03:15:00.419Z,74.20
2019-02-15T03:17:28.157Z,74.00
2019-02-15T03:19:55.753Z,73.80
2019-02-15T03:22:24.149Z,74.30
2019-02-15T03:24:52.506Z,74.30
2019-02-15T03:27:20.232Z,74.40
2019-02-15T03:29:47.594Z,74.40
2019-02-15T03:32:15.473Z,74.20
2019-02-15T03:34:42.885Z,74.50
2019-02-15T03:37:33.303Z,75.80
2019-02-15T03:40:05.843Z,74.70
2019-02-15T03:42:33.295Z,74.40
2019-02-15T03:45:00.848Z,74.30
2019-02-15T03:47:28.316Z,74.50
2019-02-15T03:49:56.826Z,74.60
2019-02-15T03:52:24.465Z,74.60
2019-02-15T03:54:52.062Z,75.30
2019-02-15T03:57:19.850Z,75.40
2019-02-15T03:59:47.857Z,75.20
2019-02-15T04:02:15.954Z,75.10
2019-02-15T04:04:43.668Z,75.00
2019-02-15T04:07:11.293Z,75.10
2019-02-15T04:09:39.158Z,75.00
2019-02-15T04:12:07.678Z,75.20
2019-02-15T04:14:35.252Z,75.60
2019-02-15T04:17:02.990Z,75.50
2019-02-15T04:19:31.416Z,75.60
2019-02-15T04:21:59.752Z,75.70
2019-02-15T04:24:27.722Z,75.60
2019-02-15T04:26:55.498Z,75.50
2019-02-15T04:29:23.238Z,75.70
2019-02-15T04:31:50.793Z,75.50
2019-02-15T04:34:18.786Z,75.80
2019-02-15T04:36:46.721Z,75.80
2019-02-15T04:39:14.666Z,75.80
2019-02-15T04:41:42.865Z,75.60
2019-02-15T04:44:10.846Z,76.00
2019-02-15T04:46:41.779Z,76.00
2019-02-15T04:49:09.120Z,76.00
2019-02-15T04:51:36.800Z,75.60
2019-02-15T04:54:04.681Z,75.90
2019-02-15T04:56:33.176Z,75.80
2019-02-15T04:59:00.767Z,75.90
2019-02-15T05:01:28.147Z,75.50
2019-02-15T05:03:55.806Z,75.60
2019-02-15T05:06:23.702Z,76.00
2019-02-15T05:08:52.266Z,75.70
2019-02-15T05:11:19.965Z,75.70
2019-02-15T05:13:47.523Z,75.70
2019-02-15T05:16:15.288Z,75.80
2019-02-15T05:18:45.815Z,76.30
2019-02-15T05:21:13.515Z,76.00
2019-02-15T05:23:41.214Z,76.00
2019-02-15T05:26:09.710Z,76.00
2019-02-15T05:28:37.183Z,75.90
2019-02-15T05:31:04.711Z,76.10
2019-02-15T05:33:32.581Z,75.90
2019-02-15T05:36:01.049Z,76.00
2019-02-15T05:38:28.592Z,75.70
2019-02-15T05:40:56.489Z,75.70
2019-02-15T05:43:24.150Z,75.60
2019-02-15T05:45:52.508Z,75.70
2019-02-15T05:48:20.028Z,75.60
2019-02-15T05:50:48.154Z,75.60
2019-02-15T05:53:15.911Z,75.50
2019-02-15T05:55:43.573Z,75.30
2019-02-15T05:58:11.419Z,75.90
2019-02-15T06:00:39.303Z,76.10
2019-02-15T06:03:06.874Z,76.80
2019-02-15T06:05:34.379Z,76.80
2019-02-15T06:08:02.098Z,76.70
2019-02-15T06:10:30.069Z,76.70
2019-02-15T06:12:57.805Z,76.30
2019-02-15T06:15:25.629Z,76.30
2019-02-15T06:17:54.347Z,76.20
2019-02-15T06:20:22.453Z,76.50
2019-02-15T06:22:50.962Z,76.20
2019-02-15T06:25:19.220Z,76.10
2019-02-15T06:27:46.947Z,76.30
2019-02-15T06:30:15.151Z,76.30
2019-02-15T06:32:43.488Z,76.40
2019-02-15T06:35:11.774Z,76.40
2019-02-15T06:37:40.205Z,76.60
2019-02-15T06:40:07.951Z,76.40
2019-02-15T06:42:36.427Z,76.60
2019-02-15T06:45:04.694Z,76.60
2019-02-15T06:47:32.775Z,76.60
2019-02-15T06:50:00.434Z,77.00
2019-02-15T06:52:28.916Z,76.70
2019-02-15T06:54:57.002Z,77.10
2019-02-15T06:57:24.947Z,77.00
2019-02-15T07:00:12.201Z,77.00
2019-02-15T07:02:56.323Z,77.00
2019-02-15T07:05:26.916Z,77.20
2019-02-15T07:07:55.043Z,77.30
2019-02-15T07:10:23.102Z,77.00
2019-02-15T07:12:51.380Z,77.10
2019-02-15T07:15:19.051Z,77.10
2019-02-15T07:17:47.424Z,77.10
2019-02-15T07:20:15.861Z,77.10
2019-02-15T07:22:45.679Z,76.80
2019-02-15T07:25:13.287Z,76.90
2019-02-15T07:27:40.910Z,77.00
2019-02-15T07:30:15.874Z,76.90
2019-02-15T07:32:43.929Z,76.90
2019-02-15T07:35:12.700Z,76.80
2019-02-15T07:37:40.362Z,76.90
2019-02-15T07:40:17.621Z,77.10
2019-02-15T07:42:46.213Z,77.00
2019-02-15T07:45:17.885Z,77.50
2019-02-15T07:47:46.083Z,77.00
2019-02-15T07:50:14.174Z,77.00
2019-02-15T07:52:41.812Z,77.00
2019-02-15T07:55:10.139Z,77.10
2019-02-15T07:57:38.673Z,77.90
2019-02-15T08:00:09.312Z,77.40
2019-02-15T08:02:37.402Z,77.40
2019-02-15T08:05:06.045Z,78.20
2019-02-15T08:07:33.918Z,77.60
2019-02-15T08:10:02.296Z,77.60
2019-02-15T08:12:30.814Z,77.70
2019-02-15T08:14:58.999Z,77.80
2019-02-15T08:17:27.568Z,78.10
2019-02-15T08:19:55.932Z,78.20
2019-02-15T08:22:23.556Z,78.40
2019-02-15T08:24:57.376Z,78.50
2019-02-15T08:27:25.830Z,78.70
2019-02-15T08:29:54.385Z,78.90
2019-02-15T08:32:22.552Z,78.80
2019-02-15T08:34:50.706Z,79.10
2019-02-15T08:37:18.572Z,79.10
2019-02-15T08:39:46.857Z,79.10
2019-02-15T08:42:14.624Z,79.10
2019-02-15T08:44:42.347Z,79.30
2019-02-15T08:47:09.905Z,79.30
2019-02-15T08:49:37.799Z,79.30
2019-02-15T08:52:07.098Z,79.30
2019-02-15T08:54:34.769Z,79.20
2019-02-15T08:57:02.735Z,79.40
2019-02-15T08:59:30.689Z,79.30
2019-02-15T09:02:05.022Z,79.70
2019-02-15T09:04:34.041Z,79.40
2019-02-15T09:07:02.242Z,79.50
2019-02-15T09:09:30.306Z,79.50
2019-02-15T09:11:58.539Z,79.50
2019-02-15T09:14:26.803Z,79.60
2019-02-15T09:16:54.728Z,79.60
2019-02-15T09:19:23.255Z,79.60
2019-02-15T09:21:50.647Z,79.60
2019-02-15T09:24:18.784Z,79.60
2019-02-15T09:26:47.073Z,79.50
2019-02-15T09:29:15.491Z,79.50
2019-02-15T09:31:43.938Z,79.60
2019-02-15T09:34:12.200Z,79.70
2019-02-15T09:36:39.897Z,79.70
2019-02-15T09:39:08.435Z,79.70
2019-02-15T09:41:36.515Z,79.70
2019-02-15T09:44:07.155Z,79.70
2019-02-15T09:46:34.897Z,79.70
2019-02-15T09:49:03.610Z,79.80
2019-02-15T09:51:31.781Z,79.80
2019-02-15T09:53:59.630Z,79.70
2019-02-15T09:56:29.048Z,79.70
2019-02-15T09:58:57.427Z,79.90
2019-02-15T10:01:25.587Z,79.90
2019-02-15T10:03:55.207Z,79.90
2019-02-15T10:06:23.199Z,79.90
2019-02-15T10:08:51.863Z,79.00
2019-02-15T10:11:19.968Z,78.90
2019-02-15T10:13:48.082Z,79.00
2019-02-15T10:16:16.604Z,79.00
2019-02-15T10:18:44.808Z,79.10
2019-02-15T10:21:14.481Z,79.30
2019-02-15T10:23:43.263Z,79.70
2019-02-15T10:26:11.145Z,80.40
2019-02-15T10:28:39.588Z,81.10
2019-02-15T10:31:07.565Z,81.70
2019-02-15T10:33:35.611Z,81.80
2019-02-15T10:36:05.434Z,81.70
2019-02-15T10:38:34.475Z,81.60
2019-02-15T10:41:03.027Z,81.30
2019-02-15T10:43:31.209Z,81.20
2019-02-15T10:45:59.284Z,81.20
2019-02-15T10:48:27.139Z,81.20
2019-02-15T10:50:55.532Z,81.20
2019-02-15T10:53:23.365Z,81.20
2019-02-15T10:55:51.054Z,81.20
2019-02-15T10:58:19.335Z,81.10
2019-02-15T11:00:47.117Z,81.10
2019-02-15T11:03:15.514Z,81.10
2019-02-15T11:05:48.039Z,81.30
2019-02-15T11:08:16.270Z,81.50
2019-02-15T11:10:47.623Z,81.50
2019-02-15T11:13:15.598Z,81.90
2019-02-15T11:15:45.265Z,81.70
2019-02-15T11:18:13.769Z,81.70
2019-02-15T11:20:43.741Z,82.60
2019-02-15T11:23:12.451Z,82.00
2019-02-15T11:25:40.378Z,82.00
2019-02-15T11:28:08.658Z,82.00
2019-02-15T11:30:36.994Z,82.10
2019-02-15T11:33:05.080Z,82.10
2019-02-15T11:35:33.407Z,82.10
2019-02-15T11:38:01.493Z,82.20
2019-02-15T11:40:36.394Z,82.10
2019-02-15T11:43:04.780Z,82.20
2019-02-15T11:45:33.474Z,82.20
2019-02-15T11:48:01.986Z,82.10
2019-02-15T11:50:30.052Z,82.10
2019-02-15T11:52:58.240Z,82.20
2019-02-15T11:55:26.162Z,82.20
2019-02-15T11:57:54.191Z,82.20
2019-02-15T12:00:27.546Z,82.30
2019-02-15T12:02:55.628Z,82.20
2019-02-15T12:05:23.857Z,82.30
2019-02-15T12:07:54.875Z,82.30
2019-02-15T12:10:22.690Z,82.30
2019-02-15T12:12:51.677Z,82.30
2019-02-15T12:15:21.189Z,82.20
2019-02-15T12:17:49.053Z,82.20
2019-02-15T12:20:18.067Z,82.30
2019-02-15T12:22:46.192Z,82.40
2019-02-15T12:25:14.815Z,82.40
2019-02-15T12:27:45.215Z,82.40
2019-02-15T12:30:13.929Z,82.60
2019-02-15T12:32:42.605Z,82.70
2019-02-15T12:35:11.739Z,82.60
2019-02-15T12:37:39.473Z,82.80
2019-02-15T12:40:07.344Z,82.90
2019-02-15T12:42:35.269Z,82.80
2019-02-15T12:45:03.282Z,82.80
2019-02-15T12:47:32.464Z,82.80
2019-02-15T12:50:17.986Z,82.80
2019-02-15T12:52:46.353Z,82.80
2019-02-15T12:55:14.347Z,83.00
2019-02-15T12:57:42.338Z,82.80
2019-02-15T13:00:11.599Z,82.60
2019-02-15T13:02:39.552Z,82.80
2019-02-15T13:05:09.062Z,82.80
2019-02-15T13:07:39.144Z,82.70
2019-02-15T13:10:08.523Z,82.60
2019-02-15T13:12:36.414Z,82.70
2019-02-15T13:15:04.687Z,82.70
2019-02-15T13:17:32.978Z,82.50
2019-02-15T13:20:00.530Z,82.40
2019-02-15T13:22:28.871Z,82.50
2019-02-15T13:24:56.663Z,82.40
2019-02-15T13:27:24.736Z,82.30
2019-02-15T13:29:52.801Z,82.30
2019-02-15T13:32:21.418Z,82.20
2019-02-15T13:34:49.677Z,82.10
2019-02-15T13:37:18.193Z,82.30
2019-02-15T13:39:46.272Z,82.40
2019-02-15T13:42:14.046Z,82.50
2019-02-15T13:44:41.342Z,82.50
2019-02-15T13:47:09.744Z,82.40
2019-02-15T13:49:37.282Z,82.30
2019-02-15T13:52:10.874Z,82.20
2019-02-15T13:54:38.867Z,82.10
2019-02-15T13:57:07.535Z,82.10
2019-02-15T13:59:35.818Z,82.10
2019-02-15T14:02:05.018Z,81.90
2019-02-15T14:04:32.972Z,82.00
2019-02-15T14:07:00.570Z,81.90
2019-02-15T14:09:28.398Z,81.90
2019-02-15T14:11:56.204Z,81.90
2019-02-15T14:14:24.235Z,82.00
2019-02-15T14:16:52.053Z,82.00
2019-02-15T14:19:19.824Z,82.10
2019-02-15T14:21:47.466Z,82.00
2019-02-15T14:24:15.302Z,81.90
2019-02-15T14:26:43.585Z,82.00
2019-02-15T14:29:11.198Z,81.80
2019-02-15T14:31:39.031Z,81.80
2019-02-15T14:34:06.736Z,81.90
2019-02-15T14:36:34.933Z,81.70
2019-02-15T14:39:05.744Z,81.80
2019-02-15T14:41:33.836Z,81.70
2019-02-15T14:44:01.718Z,81.70
2019-02-15T14:46:29.138Z,81.90
2019-02-15T14:48:57.116Z,81.90
2019-02-15T14:51:25.327Z,81.70
2019-02-15T14:53:53.718Z,81.70
2019-02-15T14:56:21.528Z,81.50
2019-02-15T14:58:49.417Z,81.40
2019-02-15T15:01:16.873Z,81.30
2019-02-15T15:03:45.492Z,81.20
2019-02-15T15:06:13.282Z,81.20
2019-02-15T15:08:41.275Z,81.30
2019-02-15T15:11:10.720Z,81.30
2019-02-15T15:13:38.392Z,81.30
2019-02-15T15:16:06.611Z,81.20
2019-02-15T15:18:34.195Z,81.10
2019-02-15T15:21:01.601Z,81.10
2019-02-15T15:23:30.310Z,81.00
2019-02-15T15:25:57.633Z,80.70
2019-02-15T15:28:24.985Z,80.80
2019-02-15T15:30:52.849Z,80.90
2019-02-15T15:33:20.199Z,80.80
2019-02-15T15:35:47.901Z,80.90
2019-02-15T15:38:15.786Z,81.30
2019-02-15T15:40:43.754Z,81.30
2019-02-15T15:43:11.399Z,81.40
2019-02-15T15:45:39.368Z,81.30
2019-02-15T15:48:10.619Z,81.30
2019-02-15T15:50:40.129Z,81.10
2019-02-15T15:53:08.004Z,81.10
2019-02-15T15:55:35.475Z,81.20
2019-02-15T15:58:03.858Z,81.20
2019-02-15T16:00:38.758Z,81.20
2019-02-15T16:03:01.697Z,81.30
2019-02-15T16:05:29.597Z,81.80
2019-02-15T16:07:57.484Z,81.30
2019-02-15T16:10:25.071Z,81.40
2019-02-15T16:12:53.202Z,81.40
2019-02-15T16:15:21.169Z,81.50
2019-02-15T16:17:48.758Z,81.30
2019-02-15T16:20:17.205Z,81.30
2019-02-15T16:22:45.075Z,82.00
2019-02-15T16:25:12.942Z,81.30
2019-02-15T16:27:43.324Z,82.20
2019-02-15T16:30:11.254Z,81.40
2019-02-15T16:32:39.679Z,81.00
2019-02-15T16:35:07.361Z,81.20
2019-02-15T16:37:35.391Z,81.30
2019-02-15T16:40:03.928Z,81.10
2019-02-15T16:42:31.919Z,81.20
2019-02-15T16:45:00.098Z,81.10
2019-02-15T16:47:28.382Z,81.00
2019-02-15T16:49:56.116Z,81.00
2019-02-15T16:52:25.531Z,80.90
2019-02-15T16:54:53.706Z,80.90
2019-02-15T16:57:21.431Z,80.90
2019-02-15T16:59:49.402Z,80.80
2019-02-15T17:02:17.082Z,80.70
2019-02-15T17:04:45.087Z,80.70
2019-02-15T17:07:13.153Z,80.70
2019-02-15T17:09:41.921Z,80.70
2019-02-15T17:12:10.137Z,80.70
2019-02-15T17:14:38.371Z,80.50
2019-02-15T17:17:06.232Z,80.50
2019-02-15T17:19:34.189Z,80.30
2019-02-15T17:22:02.301Z,80.20
2019-02-15T17:24:30.298Z,80.10
2019-02-15T17:26:58.480Z,80.00
2019-02-15T17:29:25.854Z,79.80
2019-02-15T17:31:54.252Z,79.70
2019-02-15T17:34:21.873Z,79.50
2019-02-15T17:36:49.381Z,79.40
2019-02-15T17:39:17.150Z,79.40
2019-02-15T17:41:45.130Z,79.30
2019-02-15T17:44:12.684Z,79.00
2019-02-15T17:46:41.510Z,79.10
2019-02-15T17:49:09.514Z,79.20
2019-02-15T17:51:37.094Z,79.00
2019-02-15T17:54:08.013Z,78.90
2019-02-15T17:56:36.012Z,78.80
2019-02-15T17:59:04.710Z,78.90
2019-02-15T18:01:33.817Z,78.80
2019-02-15T18:04:01.321Z,78.70
2019-02-15T18:06:29.579Z,78.10
2019-02-15T18:08:57.040Z,78.70
2019-02-15T18:11:24.796Z,78.70
2019-02-15T18:13:52.537Z,78.50
2019-02-15T18:16:20.029Z,78.30
2019-02-15T18:18:48.076Z,78.40
2019-02-15T18:21:15.785Z,78.10
2019-02-15T18:23:44.117Z,78.00
2019-02-15T18:26:12.448Z,77.90
2019-02-15T18:28:40.376Z,77.90
2019-02-15T18:31:07.901Z,77.90
2019-02-15T18:33:38.185Z,78.20
2019-02-15T18:36:05.747Z,77.90
2019-02-15T18:38:33.730Z,78.00
2019-02-15T18:41:01.271Z,78.00
2019-02-15T18:43:28.725Z,77.80
2019-02-15T18:45:56.380Z,77.80
2019-02-15T18:48:23.958Z,77.80
2019-02-15T18:50:51.637Z,77.80
2019-02-15T18:53:19.270Z,77.60
2019-02-15T18:55:47.226Z,77.50
2019-02-15T18:58:15.093Z,77.50
2019-02-15T19:00:42.766Z,77.40
2019-02-15T19:03:11.695Z,77.50
2019-02-15T19:05:41.273Z,78.00
2019-02-15T19:08:09.007Z,77.30
2019-02-15T19:10:37.100Z,77.30
2019-02-15T19:13:05.049Z,77.20
2019-02-15T19:15:33.565Z,77.10
2019-02-15T19:18:01.185Z,77.10
2019-02-15T19:20:29.851Z,77.00
2019-02-15T19:22:58.674Z,76.80
2019-02-15T19:25:26.250Z,76.80
2019-02-15T19:27:53.798Z,76.80
2019-02-15T19:30:22.582Z,76.80
2019-02-15T19:32:50.713Z,76.80
2019-02-15T19:35:18.604Z,76.70
2019-02-15T19:37:46.716Z,76.80
2019-02-15T19:40:14.963Z,76.80
2019-02-15T19:42:44.603Z,76.70
2019-02-15T19:45:12.288Z,76.80
2019-02-15T19:47:39.759Z,76.60
2019-02-15T19:50:11.651Z,77.20
2019-02-15T19:52:39.558Z,76.80
2019-02-15T19:55:08.647Z,77.00
2019-02-15T19:57:36.606Z,77.10
2019-02-15T20:00:06.198Z,76.90
2019-02-15T20:02:34.281Z,76.90
2019-02-15T20:05:01.734Z,76.90
2019-02-15T20:07:29.321Z,76.70
2019-02-15T20:09:56.916Z,76.70
2019-02-15T20:12:24.943Z,76.60
2019-02-15T20:14:53.083Z,76.60
2019-02-15T20:17:20.896Z,76.60
2019-02-15T20:19:50.867Z,76.50
2019-02-15T20:22:18.183Z,76.50
2019-02-15T20:24:45.955Z,76.50
2019-02-15T20:27:14.154Z,76.30
2019-02-15T20:29:49.335Z,76.30
2019-02-15T20:32:15.267Z,76.10
2019-02-15T20:34:45.278Z,76.20
2019-02-15T20:37:13.006Z,76.10
2019-02-15T20:39:40.352Z,76.30
2019-02-15T20:42:08.086Z,76.10
2019-02-15T20:44:35.985Z,76.10
2019-02-15T20:47:03.471Z,75.90
2019-02-15T20:49:31.102Z,75.80
2019-02-15T20:51:59.438Z,75.80
2019-02-15T20:54:27.202Z,75.70
2019-02-15T20:56:54.963Z,75.50
2019-02-15T20:59:22.477Z,75.40
2019-02-15T21:01:50.076Z,75.80
2019-02-15T21:04:17.900Z,75.20
2019-02-15T21:06:46.061Z,75.20
2019-02-15T21:09:14.179Z,75.10
2019-02-15T21:11:42.006Z,74.90
2019-02-15T21:14:09.854Z,75.00
2019-02-15T21:16:37.372Z,74.90
2019-02-15T21:19:04.803Z,74.80
2019-02-15T21:21:32.782Z,74.90
2019-02-15T21:24:01.360Z,74.80
2019-02-15T21:26:29.685Z,74.80
2019-02-15T21:28:57.689Z,74.80
2019-02-15T21:31:25.431Z,74.90
2019-02-15T21:33:53.294Z,74.80
2019-02-15T21:36:22.167Z,74.90
2019-02-15T21:38:49.905Z,74.90
2019-02-15T21:41:17.769Z,74.90
2019-02-15T21:43:45.575Z,75.10
2019-02-15T21:46:13.500Z,75.10
2019-02-15T21:48:41.440Z,75.00
2019-02-15T21:51:09.469Z,74.70
2019-02-15T21:53:37.956Z,74.80
2019-02-15T21:56:05.505Z,74.70
2019-02-15T21:58:33.181Z,74.80
2019-02-15T22:01:01.538Z,74.80
2019-02-15T22:03:30.616Z,74.80
2019-02-15T22:05:58.607Z,74.80
2019-02-15T22:08:26.391Z,74.80
2019-02-15T22:10:54.608Z,74.90
2019-02-15T22:13:22.829Z,75.10
2019-02-15T22:15:50.631Z,74.70
2019-02-15T22:18:18.262Z,74.80
2019-02-15T22:20:46.265Z,74.70
2019-02-15T22:23:14.162Z,74.70
2019-02-15T22:25:42.754Z,74.60
2019-02-15T22:28:11.341Z,74.70
2019-02-15T22:30:39.657Z,74.60
2019-02-15T22:33:07.267Z,74.70
2019-02-15T22:35:35.395Z,74.60
2019-02-15T22:38:03.337Z,74.70
2019-02-15T22:40:33.073Z,74.70
2019-02-15T22:43:04.005Z,74.70
2019-02-15T22:45:33.009Z,74.90
2019-02-15T22:48:01.413Z,75.10
2019-02-15T22:50:35.626Z,75.20
2019-02-15T22:52:59.450Z,75.00
2019-02-15T22:55:26.680Z,75.10
2019-02-15T22:57:54.415Z,75.10
2019-02-15T23:00:30.639Z,75.20
2019-02-15T23:02:58.910Z,75.20
2019-02-15T23:05:26.802Z,74.50
2019-02-15T23:07:54.534Z,75.20
2019-02-15T23:10:22.621Z,75.20
2019-02-15T23:12:49.993Z,75.30
2019-02-15T23:15:17.632Z,75.90
2019-02-15T23:17:45.191Z,75.60
2019-02-15T23:20:13.377Z,75.60
2019-02-15T23:22:41.053Z,75.60
2019-02-15T23:25:08.725Z,75.70
2019-02-15T23:27:37.307Z,75.60
2019-02-15T23:30:05.143Z,75.60
2019-02-15T23:32:32.942Z,75.60
2019-02-15T23:35:00.389Z,75.50
2019-02-15T23:37:28.656Z,75.50
2019-02-15T23:39:56.319Z,75.30
2019-02-15T23:42:24.405Z,75.60
2019-02-15T23:44:52.592Z,75.50
2019-02-15T23:47:20.165Z,75.70
2019-02-15T23:49:48.025Z,75.70
2019-02-15T23:52:15.667Z,75.70
2019-02-15T23:54:43.055Z,75.40
2019-02-15T23:57:11.320Z,75.60
2019-02-15T23:59:38.987Z,75.30
